sensor_id;sensor_type;location;lat;lon;timestamp;pressure;altitude;pressure_sealevel;temperature;humidity
71457;BME280;59263;48.160;11.752;2022-08-19T00:01:38;95408.69;;;16.92;100.00
71457;BME280;59263;48.160;11.752;2022-08-19T00:04:10;95410.66;;;16.90;100.00
71457;BME280;59263;48.160;11.752;2022-08-19T00:06:37;95412.69;;;16.88;100.00
71457;BME280;59263;48.160;11.752;2022-08-19T00:09:06;95405.81;;;16.87;100.00
71457;BME280;59263;48.160;11.752;2022-08-19T00:11:32;95393.38;;;16.89;100.00
71457;BME280;59263;48.160;11.752;2022-08-19T00:13:57;95386.56;;;16.88;100.00
71457;BME280;59263;48.160;11.752;2022-08-19T00:16:24;95374.09;;;16.90;100.00
71457;BME280;59263;48.160;11.752;2022-08-19T00:18:50;95375.09;;;16.89;100.00
71457;BME280;59263;48.160;11.752;2022-08-19T00:21:15;95370.06;;;16.87;100.00
71457;BME280;59263;48.160;11.752;2022-08-19T00:23:42;95359.63;;;16.87;100.00
71457;BME280;59263;48.160;11.752;2022-08-19T00:26:09;95355.19;;;16.88;100.00
71457;BME280;59263;48.160;11.752;2022-08-19T00:28:34;95348.31;;;16.87;100.00
71457;BME280;59263;48.160;11.752;2022-08-19T00:31:01;95353.94;;;16.77;100.00
71457;BME280;59263;48.160;11.752;2022-08-19T00:33:28;95354.72;;;16.78;100.00
71457;BME280;59263;48.160;11.752;2022-08-19T00:35:55;95353.50;;;16.74;100.00
71457;BME280;59263;48.160;11.752;2022-08-19T00:38:20;95352.13;;;16.78;100.00
71457;BME280;59263;48.160;11.752;2022-08-19T00:40:48;95359.94;;;16.78;100.00
71457;BME280;59263;48.160;11.752;2022-08-19T00:43:19;95357.56;;;16.83;100.00
71457;BME280;59263;48.160;11.752;2022-08-19T00:45:45;95352.78;;;16.93;100.00
71457;BME280;59263;48.160;11.752;2022-08-19T00:48:12;95345.97;;;16.92;100.00
71457;BME280;59263;48.160;11.752;2022-08-19T00:50:39;95343.19;;;17.00;100.00
71457;BME280;59263;48.160;11.752;2022-08-19T00:53:06;95341.94;;;16.96;100.00
71457;BME280;59263;48.160;11.752;2022-08-19T00:55:32;95337.31;;;16.98;100.00
71457;BME280;59263;48.160;11.752;2022-08-19T00:58:02;95332.72;;;17.00;100.00
71457;BME280;59263;48.160;11.752;2022-08-19T01:00:30;95339.16;;;17.04;100.00
71457;BME280;59263;48.160;11.752;2022-08-19T01:02:55;95337.94;;;17.00;100.00
71457;BME280;59263;48.160;11.752;2022-08-19T01:05:24;95343.38;;;17.05;100.00
71457;BME280;59263;48.160;11.752;2022-08-19T01:07:53;95327.88;;;16.97;100.00
71457;BME280;59263;48.160;11.752;2022-08-19T01:10:22;95328.03;;;16.89;100.00
71457;BME280;59263;48.160;11.752;2022-08-19T01:12:48;95326.66;;;16.93;100.00
71457;BME280;59263;48.160;11.752;2022-08-19T01:15:18;95320.59;;;16.86;100.00
71457;BME280;59263;48.160;11.752;2022-08-19T01:17:45;95319.38;;;16.82;100.00
71457;BME280;59263;48.160;11.752;2022-08-19T01:20:18;95310.38;;;16.98;100.00
71457;BME280;59263;48.160;11.752;2022-08-19T01:22:50;95304.59;;;17.02;100.00
71457;BME280;59263;48.160;11.752;2022-08-19T01:25:19;95313.25;;;17.09;100.00
71457;BME280;59263;48.160;11.752;2022-08-19T01:27:48;95331.50;;;16.96;100.00
71457;BME280;59263;48.160;11.752;2022-08-19T01:30:17;95347.94;;;16.90;100.00
71457;BME280;59263;48.160;11.752;2022-08-19T01:32:43;95356.75;;;16.82;100.00
71457;BME280;59263;48.160;11.752;2022-08-19T01:35:11;95363.75;;;16.75;100.00
71457;BME280;59263;48.160;11.752;2022-08-19T01:38:04;95384.03;;;16.73;100.00
71457;BME280;59263;48.160;11.752;2022-08-19T01:40:35;95387.00;;;16.70;100.00
71457;BME280;59263;48.160;11.752;2022-08-19T01:43:02;95389.25;;;16.73;100.00
71457;BME280;59263;48.160;11.752;2022-08-19T01:45:29;95389.69;;;16.77;100.00
71457;BME280;59263;48.160;11.752;2022-08-19T01:47:56;95379.25;;;16.77;100.00
71457;BME280;59263;48.160;11.752;2022-08-19T01:50:22;95385.06;;;16.79;100.00
71457;BME280;59263;48.160;11.752;2022-08-19T01:52:48;95385.69;;;16.81;100.00
71457;BME280;59263;48.160;11.752;2022-08-19T01:55:17;95384.09;;;16.80;100.00
71457;BME280;59263;48.160;11.752;2022-08-19T01:57:47;95393.53;;;16.81;100.00
71457;BME280;59263;48.160;11.752;2022-08-19T02:00:15;95392.53;;;16.82;100.00
71457;BME280;59263;48.160;11.752;2022-08-19T02:02:42;95388.91;;;16.83;100.00
71457;BME280;59263;48.160;11.752;2022-08-19T02:05:08;95371.03;;;16.86;100.00
71457;BME280;59263;48.160;11.752;2022-08-19T02:07:35;95381.31;;;16.88;100.00
71457;BME280;59263;48.160;11.752;2022-08-19T02:10:03;95383.56;;;16.91;100.00
71457;BME280;59263;48.160;11.752;2022-08-19T02:12:29;95392.75;;;16.87;100.00
71457;BME280;59263;48.160;11.752;2022-08-19T02:14:54;95396.19;;;16.87;100.00
71457;BME280;59263;48.160;11.752;2022-08-19T02:17:19;95398.63;;;16.89;100.00
71457;BME280;59263;48.160;11.752;2022-08-19T02:19:45;95404.63;;;16.89;100.00
71457;BME280;59263;48.160;11.752;2022-08-19T02:22:11;95400.22;;;16.90;100.00
71457;BME280;59263;48.160;11.752;2022-08-19T02:24:36;95399.78;;;16.86;100.00
71457;BME280;59263;48.160;11.752;2022-08-19T02:27:01;95405.81;;;16.87;100.00
71457;BME280;59263;48.160;11.752;2022-08-19T02:29:27;95405.66;;;16.88;100.00
71457;BME280;59263;48.160;11.752;2022-08-19T02:31:52;95413.66;;;16.87;100.00
71457;BME280;59263;48.160;11.752;2022-08-19T02:34:18;95407.47;;;16.88;100.00
71457;BME280;59263;48.160;11.752;2022-08-19T02:36:43;95396.38;;;16.86;100.00
71457;BME280;59263;48.160;11.752;2022-08-19T02:39:09;95391.53;;;16.83;100.00
71457;BME280;59263;48.160;11.752;2022-08-19T02:41:35;95383.69;;;16.83;100.00
71457;BME280;59263;48.160;11.752;2022-08-19T02:44:02;95371.09;;;16.93;100.00
71457;BME280;59263;48.160;11.752;2022-08-19T02:46:30;95358.41;;;16.90;100.00
71457;BME280;59263;48.160;11.752;2022-08-19T02:48:59;95345.56;;;16.95;100.00
71457;BME280;59263;48.160;11.752;2022-08-19T02:51:45;95343.09;;;16.87;100.00
71457;BME280;59263;48.160;11.752;2022-08-19T02:54:11;95343.50;;;16.84;100.00
71457;BME280;59263;48.160;11.752;2022-08-19T02:56:39;95344.09;;;16.86;100.00
71457;BME280;59263;48.160;11.752;2022-08-19T02:59:06;95349.53;;;16.84;100.00
71457;BME280;59263;48.160;11.752;2022-08-19T03:01:37;95355.19;;;16.88;100.00
71457;BME280;59263;48.160;11.752;2022-08-19T03:04:04;95353.56;;;16.87;100.00
71457;BME280;59263;48.160;11.752;2022-08-19T03:06:31;95353.13;;;16.83;100.00
71457;BME280;59263;48.160;11.752;2022-08-19T03:08:57;95351.56;;;16.89;100.00
71457;BME280;59263;48.160;11.752;2022-08-19T03:11:25;95355.59;;;16.91;100.00
71457;BME280;59263;48.160;11.752;2022-08-19T03:13:51;95344.94;;;16.93;100.00
71457;BME280;59263;48.160;11.752;2022-08-19T03:16:19;95343.19;;;17.00;100.00
71457;BME280;59263;48.160;11.752;2022-08-19T03:18:45;95345.56;;;16.95;100.00
71457;BME280;59263;48.160;11.752;2022-08-19T03:21:16;95340.09;;;16.90;100.00
71457;BME280;59263;48.160;11.752;2022-08-19T03:23:42;95335.53;;;16.99;100.00
71457;BME280;59263;48.160;11.752;2022-08-19T03:26:07;95353.81;;;16.92;100.00
71457;BME280;59263;48.160;11.752;2022-08-19T03:28:32;95360.78;;;16.85;100.00
71457;BME280;59263;48.160;11.752;2022-08-19T03:31:12;95360.78;;;16.85;100.00
71457;BME280;59263;48.160;11.752;2022-08-19T03:33:38;95370.50;;;16.91;100.00
71457;BME280;59263;48.160;11.752;2022-08-19T03:36:10;95372.69;;;16.87;100.00
71457;BME280;59263;48.160;11.752;2022-08-19T03:38:38;95376.94;;;16.95;100.00
71457;BME280;59263;48.160;11.752;2022-08-19T03:41:09;95385.16;;;16.92;100.00
71457;BME280;59263;48.160;11.752;2022-08-19T03:43:37;95384.97;;;16.93;100.00
71457;BME280;59263;48.160;11.752;2022-08-19T03:46:08;95380.16;;;16.97;100.00
71457;BME280;59263;48.160;11.752;2022-08-19T03:48:36;95399.47;;;16.96;100.00
71457;BME280;59263;48.160;11.752;2022-08-19T03:51:02;95389.38;;;16.93;100.00
71457;BME280;59263;48.160;11.752;2022-08-19T03:53:29;95391.00;;;16.94;100.00
71457;BME280;59263;48.160;11.752;2022-08-19T03:55:56;95381.75;;;16.98;100.00
71457;BME280;59263;48.160;11.752;2022-08-19T03:58:23;95380.53;;;16.94;100.00
71457;BME280;59263;48.160;11.752;2022-08-19T04:00:48;95382.97;;;16.96;100.00
71457;BME280;59263;48.160;11.752;2022-08-19T04:03:14;95389.38;;;16.93;100.00
71457;BME280;59263;48.160;11.752;2022-08-19T04:05:39;95389.38;;;16.93;100.00
71457;BME280;59263;48.160;11.752;2022-08-19T04:08:04;95374.53;;;17.00;100.00
71457;BME280;59263;48.160;11.752;2022-08-19T04:10:37;95362.13;;;17.15;100.00
71457;BME280;59263;48.160;11.752;2022-08-19T04:13:04;95356.53;;;17.18;100.00
71457;BME280;59263;48.160;11.752;2022-08-19T04:15:31;95361.53;;;17.20;100.00
71457;BME280;59263;48.160;11.752;2022-08-19T04:18:04;95366.00;;;17.26;100.00
71457;BME280;59263;48.160;11.752;2022-08-19T04:20:31;95377.81;;;17.15;100.00
71457;BME280;59263;48.160;11.752;2022-08-19T04:22:56;95375.38;;;17.07;100.00
71457;BME280;59263;48.160;11.752;2022-08-19T04:25:22;95378.75;;;17.01;100.00
71457;BME280;59263;48.160;11.752;2022-08-19T04:27:47;95376.16;;;17.01;100.00
71457;BME280;59263;48.160;11.752;2022-08-19T04:30:14;95380.16;;;16.97;100.00
71457;BME280;59263;48.160;11.752;2022-08-19T04:32:39;95388.63;;;16.99;100.00
71457;BME280;59263;48.160;11.752;2022-08-19T04:35:05;95393.84;;;16.99;100.00
71457;BME280;59263;48.160;11.752;2022-08-19T04:37:30;95400.69;;;17.00;100.00
71457;BME280;59263;48.160;11.752;2022-08-19T04:39:58;95409.16;;;17.02;100.00
71457;BME280;59263;48.160;11.752;2022-08-19T04:42:42;95401.06;;;16.97;100.00
71457;BME280;59263;48.160;11.752;2022-08-19T04:45:13;95405.50;;;16.97;100.00
71457;BME280;59263;48.160;11.752;2022-08-19T04:47:41;95411.50;;;16.97;100.00
71457;BME280;59263;48.160;11.752;2022-08-19T04:50:08;95423.56;;;16.98;100.00
71457;BME280;59263;48.160;11.752;2022-08-19T04:52:34;95423.41;;;17.00;100.00
71457;BME280;59263;48.160;11.752;2022-08-19T04:54:59;95428.81;;;16.98;100.00
71457;BME280;59263;48.160;11.752;2022-08-19T04:57:25;95424.59;;;16.97;100.00
71457;BME280;59263;48.160;11.752;2022-08-19T04:59:55;95425.38;;;16.98;100.00
71457;BME280;59263;48.160;11.752;2022-08-19T05:02:21;95425.00;;;17.01;100.00
71457;BME280;59263;48.160;11.752;2022-08-19T05:04:51;95432.06;;;17.00;100.00
71457;BME280;59263;48.160;11.752;2022-08-19T05:07:20;95429.63;;;16.99;100.00
71457;BME280;59263;48.160;11.752;2022-08-19T05:09:46;95434.66;;;17.00;100.00
71457;BME280;59263;48.160;11.752;2022-08-19T05:12:11;95438.50;;;17.04;100.00
71457;BME280;59263;48.160;11.752;2022-08-19T05:14:36;95445.34;;;17.05;100.00
71457;BME280;59263;48.160;11.752;2022-08-19T05:17:02;95441.53;;;17.08;100.00
71457;BME280;59263;48.160;11.752;2022-08-19T05:19:27;95441.38;;;17.09;100.00
71457;BME280;59263;48.160;11.752;2022-08-19T05:22:11;95432.13;;;17.13;100.00
71457;BME280;59263;48.160;11.752;2022-08-19T05:24:55;95436.75;;;17.11;100.00
71457;BME280;59263;48.160;11.752;2022-08-19T05:27:20;95428.09;;;17.11;100.00
71457;BME280;59263;48.160;11.752;2022-08-19T05:29:45;95445.38;;;17.12;100.00
71457;BME280;59263;48.160;11.752;2022-08-19T05:32:10;95437.75;;;17.10;100.00
71457;BME280;59263;48.160;11.752;2022-08-19T05:34:36;95434.50;;;17.08;100.00
71457;BME280;59263;48.160;11.752;2022-08-19T05:37:04;95438.13;;;17.07;100.00
71457;BME280;59263;48.160;11.752;2022-08-19T05:39:32;95424.44;;;17.05;100.00
71457;BME280;59263;48.160;11.752;2022-08-19T05:42:02;95435.88;;;17.04;100.00
71457;BME280;59263;48.160;11.752;2022-08-19T05:44:30;95421.81;;;17.05;100.00
71457;BME280;59263;48.160;11.752;2022-08-19T05:46:59;95414.59;;;17.07;100.00
71457;BME280;59263;48.160;11.752;2022-08-19T05:49:26;95427.28;;;17.10;100.00
71457;BME280;59263;48.160;11.752;2022-08-19T05:51:52;95422.44;;;17.07;100.00
71457;BME280;59263;48.160;11.752;2022-08-19T05:54:18;95418.81;;;17.08;100.00
71457;BME280;59263;48.160;11.752;2022-08-19T05:56:45;95423.47;;;17.13;100.00
71457;BME280;59263;48.160;11.752;2022-08-19T05:59:14;95419.91;;;17.21;100.00
71457;BME280;59263;48.160;11.752;2022-08-19T06:01:42;95412.69;;;17.29;100.00
71457;BME280;59263;48.160;11.752;2022-08-19T06:04:08;95406.84;;;17.27;100.00
71457;BME280;59263;48.160;11.752;2022-08-19T06:06:34;95413.88;;;17.27;100.00
71457;BME280;59263;48.160;11.752;2022-08-19T06:09:04;95415.91;;;17.25;100.00
71457;BME280;59263;48.160;11.752;2022-08-19T06:14:04;95426.50;;;17.16;100.00
71457;BME280;59263;48.160;11.752;2022-08-19T06:16:29;95430.50;;;17.12;100.00
71457;BME280;59263;48.160;11.752;2022-08-19T06:18:58;95434.50;;;17.08;100.00
71457;BME280;59263;48.160;11.752;2022-08-19T06:21:26;95439.13;;;17.06;100.00
71457;BME280;59263;48.160;11.752;2022-08-19T06:23:52;95433.28;;;17.04;100.00
71457;BME280;59263;48.160;11.752;2022-08-19T06:26:19;95434.50;;;17.08;100.00
71457;BME280;59263;48.160;11.752;2022-08-19T06:28:46;95436.53;;;17.06;100.00
71457;BME280;59263;48.160;11.752;2022-08-19T06:31:14;95432.53;;;17.10;100.00
71457;BME280;59263;48.160;11.752;2022-08-19T06:33:41;95428.47;;;17.08;100.00
71457;BME280;59263;48.160;11.752;2022-08-19T06:36:07;95425.69;;;17.09;100.00
71457;BME280;59263;48.160;11.752;2022-08-19T06:38:33;95418.44;;;17.11;100.00
71457;BME280;59263;48.160;11.752;2022-08-19T06:41:03;95425.91;;;17.14;100.00
71457;BME280;59263;48.160;11.752;2022-08-19T06:43:29;95430.75;;;17.17;100.00
71457;BME280;59263;48.160;11.752;2022-08-19T06:45:54;95438.00;;;17.22;100.00
71457;BME280;59263;48.160;11.752;2022-08-19T06:48:20;95430.97;;;17.23;100.00
71457;BME280;59263;48.160;11.752;2022-08-19T06:50:45;95442.06;;;17.25;100.00
71457;BME280;59263;48.160;11.752;2022-08-19T06:53:10;95445.03;;;17.22;100.00
71457;BME280;59263;48.160;11.752;2022-08-19T06:55:35;95447.47;;;17.23;100.00
71457;BME280;59263;48.160;11.752;2022-08-19T06:58:03;95440.41;;;17.17;100.00
71457;BME280;59263;48.160;11.752;2022-08-19T07:00:31;95437.97;;;17.15;100.00
71457;BME280;59263;48.160;11.752;2022-08-19T07:02:57;95436.56;;;17.20;100.00
71457;BME280;59263;48.160;11.752;2022-08-19T07:05:23;95445.03;;;17.22;100.00
71457;BME280;59263;48.160;11.752;2022-08-19T07:07:49;95429.94;;;17.24;100.00
71457;BME280;59263;48.160;11.752;2022-08-19T07:10:14;95429.53;;;17.20;100.00
71457;BME280;59263;48.160;11.752;2022-08-19T07:12:40;95432.72;;;17.15;100.00
71457;BME280;59263;48.160;11.752;2022-08-19T07:15:06;95420.47;;;17.16;100.00
71457;BME280;59263;48.160;11.752;2022-08-19T07:17:33;95414.47;;;17.22;100.00
71457;BME280;59263;48.160;11.752;2022-08-19T07:20:02;95414.13;;;17.32;100.00
71457;BME280;59263;48.160;11.752;2022-08-19T07:22:28;95412.53;;;17.37;100.00
71457;BME280;59263;48.160;11.752;2022-08-19T07:24:53;95398.69;;;17.50;100.00
71457;BME280;59263;48.160;11.752;2022-08-19T07:27:18;95392.47;;;17.51;100.00
71457;BME280;59263;48.160;11.752;2022-08-19T07:29:44;95388.44;;;17.55;100.00
71457;BME280;59263;48.160;11.752;2022-08-19T07:32:10;95379.59;;;17.56;100.00
71457;BME280;59263;48.160;11.752;2022-08-19T07:34:36;95377.22;;;17.75;100.00
71457;BME280;59263;48.160;11.752;2022-08-19T07:37:06;95382.09;;;17.98;100.00
71457;BME280;59263;48.160;11.752;2022-08-19T07:39:33;95377.88;;;17.90;100.00
71457;BME280;59263;48.160;11.752;2022-08-19T07:42:02;95374.03;;;17.86;100.00
71457;BME280;59263;48.160;11.752;2022-08-19T07:44:28;95381.69;;;17.81;100.00
71457;BME280;59263;48.160;11.752;2022-08-19T07:46:56;95381.88;;;17.79;100.00
71457;BME280;59263;48.160;11.752;2022-08-19T07:49:22;95394.97;;;17.86;100.00
71457;BME280;59263;48.160;11.752;2022-08-19T07:51:51;95393.75;;;17.82;100.00
71457;BME280;59263;48.160;11.752;2022-08-19T07:54:18;95406.84;;;17.75;100.00
71457;BME280;59263;48.160;11.752;2022-08-19T07:56:43;95403.78;;;17.72;100.00
71457;BME280;59263;48.160;11.752;2022-08-19T07:59:09;95398.34;;;17.66;100.00
71457;BME280;59263;48.160;11.752;2022-08-19T08:01:35;95408.81;;;17.66;100.00
71457;BME280;59263;48.160;11.752;2022-08-19T08:04:01;95402.94;;;17.64;100.00
71457;BME280;59263;48.160;11.752;2022-08-19T08:06:45;95406.56;;;17.63;100.00
71457;BME280;59263;48.160;11.752;2022-08-19T08:09:34;95401.13;;;17.58;100.00
71457;BME280;59263;48.160;11.752;2022-08-19T08:14:30;95406.94;;;17.47;100.00
71457;BME280;59263;48.160;11.752;2022-08-19T08:16:58;95407.91;;;17.46;100.00
71457;BME280;59263;48.160;11.752;2022-08-19T08:19:26;95421.78;;;17.40;100.00
71457;BME280;59263;48.160;11.752;2022-08-19T08:21:54;95421.38;;;17.36;100.00
71457;BME280;59263;48.160;11.752;2022-08-19T08:24:19;95423.19;;;17.36;100.00
71457;BME280;59263;48.160;11.752;2022-08-19T08:26:45;95426.19;;;17.33;100.00
71457;BME280;59263;48.160;11.752;2022-08-19T08:29:11;95424.97;;;17.29;100.00
71457;BME280;59263;48.160;11.752;2022-08-19T08:31:42;95431.41;;;17.33;100.00
71457;BME280;59263;48.160;11.752;2022-08-19T08:34:08;95429.00;;;17.38;100.00
71457;BME280;59263;48.160;11.752;2022-08-19T08:36:39;95431.47;;;17.39;100.00
71457;BME280;59263;48.160;11.752;2022-08-19T08:39:09;95434.25;;;17.38;100.00
71457;BME280;59263;48.160;11.752;2022-08-19T08:44:32;95445.09;;;17.35;100.00
71457;BME280;59263;48.160;11.752;2022-08-19T08:47:04;95440.66;;;17.29;100.00
71457;BME280;59263;48.160;11.752;2022-08-19T08:52:11;95450.94;;;17.37;100.00
71457;BME280;59263;48.160;11.752;2022-08-19T08:54:47;95454.16;;;17.39;100.00
71457;BME280;59263;48.160;11.752;2022-08-19T08:57:18;95447.56;;;17.43;100.00
71457;BME280;59263;48.160;11.752;2022-08-19T08:59:47;95447.56;;;17.43;100.00
71457;BME280;59263;48.160;11.752;2022-08-19T09:02:17;95453.59;;;17.44;100.00
71457;BME280;59263;48.160;11.752;2022-08-19T09:04:42;95456.22;;;17.44;100.00
71457;BME280;59263;48.160;11.752;2022-08-19T09:12:57;95459.63;;;17.44;100.00
71457;BME280;59263;48.160;11.752;2022-08-19T09:15:32;95463.59;;;17.33;100.00
71457;BME280;59263;48.160;11.752;2022-08-19T09:18:01;95462.97;;;17.25;100.00
71457;BME280;59263;48.160;11.752;2022-08-19T09:20:28;95462.75;;;17.26;100.00
71457;BME280;59263;48.160;11.752;2022-08-19T09:22:53;95450.50;;;17.27;100.00
71457;BME280;59263;48.160;11.752;2022-08-19T09:25:21;95448.28;;;17.30;100.00
71457;BME280;59263;48.160;11.752;2022-08-19T09:27:47;95448.34;;;17.37;100.00
71457;BME280;59263;48.160;11.752;2022-08-19T09:30:19;95453.63;;;17.50;100.00
71457;BME280;59263;48.160;11.752;2022-08-19T09:32:46;95445.63;;;17.58;100.00
71457;BME280;59263;48.160;11.752;2022-08-19T09:35:12;95455.84;;;17.53;100.00
71457;BME280;59263;48.160;11.752;2022-08-19T09:37:38;95456.88;;;17.59;100.00
71457;BME280;59263;48.160;11.752;2022-08-19T09:40:03;95452.84;;;17.56;100.00
71457;BME280;59263;48.160;11.752;2022-08-19T09:42:29;95452.06;;;17.62;100.00
71457;BME280;59263;48.160;11.752;2022-08-19T09:44:54;95450.88;;;17.72;100.00
71457;BME280;59263;48.160;11.752;2022-08-19T09:47:20;95441.91;;;17.87;100.00
71457;BME280;59263;48.160;11.752;2022-08-19T09:49:45;95453.00;;;17.96;100.00
71457;BME280;59263;48.160;11.752;2022-08-19T09:52:12;95445.75;;;18.05;100.00
71457;BME280;59263;48.160;11.752;2022-08-19T09:54:38;95443.34;;;18.03;100.00
71457;BME280;59263;48.160;11.752;2022-08-19T09:57:04;95452.63;;;17.99;100.00
71457;BME280;59263;48.160;11.752;2022-08-19T09:59:30;95446.16;;;17.95;100.00
71457;BME280;59263;48.160;11.752;2022-08-19T10:01:55;95452.22;;;18.02;100.00
71457;BME280;59263;48.160;11.752;2022-08-19T10:04:21;95452.41;;;18.07;100.00
71457;BME280;59263;48.160;11.752;2022-08-19T10:06:48;95440.75;;;18.03;100.00
71457;BME280;59263;48.160;11.752;2022-08-19T10:09:16;95455.03;;;18.07;100.00
71457;BME280;59263;48.160;11.752;2022-08-19T10:11:44;95447.00;;;18.16;100.00
71457;BME280;59263;48.160;11.752;2022-08-19T10:14:14;95454.25;;;18.20;100.00
71457;BME280;59263;48.160;11.752;2022-08-19T10:16:41;95445.19;;;18.23;100.00
71457;BME280;59263;48.160;11.752;2022-08-19T10:19:08;95452.25;;;18.29;100.00
71457;BME280;59263;48.160;11.752;2022-08-19T10:21:34;95458.31;;;18.36;100.00
71457;BME280;59263;48.160;11.752;2022-08-19T10:24:03;95453.06;;;18.36;100.00
71457;BME280;59263;48.160;11.752;2022-08-19T10:26:34;95451.06;;;18.51;100.00
71457;BME280;59263;48.160;11.752;2022-08-19T10:29:02;95447.25;;;18.47;100.00
71457;BME280;59263;48.160;11.752;2022-08-19T10:31:31;95457.13;;;18.65;100.00
71457;BME280;59263;48.160;11.752;2022-08-19T10:33:57;95438.56;;;18.93;100.00
71457;BME280;59263;48.160;11.752;2022-08-19T10:36:42;95439.34;;;19.14;100.00
71457;BME280;59263;48.160;11.752;2022-08-19T10:39:09;95436.31;;;19.10;100.00
71457;BME280;59263;48.160;11.752;2022-08-19T10:41:38;95441.25;;;19.45;100.00
71457;BME280;59263;48.160;11.752;2022-08-19T10:44:06;95445.56;;;19.19;100.00
71457;BME280;59263;48.160;11.752;2022-08-19T10:46:34;95443.41;;;18.96;100.00
71457;BME280;59263;48.160;11.752;2022-08-19T10:49:02;95443.19;;;19.04;100.00
71457;BME280;59263;48.160;11.752;2022-08-19T10:51:28;95441.31;;;19.25;100.00
71457;BME280;59263;48.160;11.752;2022-08-19T10:54:11;95448.25;;;18.99;100.00
71457;BME280;59263;48.160;11.752;2022-08-19T10:56:37;95440.78;;;18.83;100.00
71457;BME280;59263;48.160;11.752;2022-08-19T10:59:26;95442.78;;;18.68;100.00
71457;BME280;59263;48.160;11.752;2022-08-19T11:01:53;95442.00;;;18.74;100.00
71457;BME280;59263;48.160;11.752;2022-08-19T11:04:19;95427.63;;;19.09;100.00
71457;BME280;59263;48.160;11.752;2022-08-19T11:06:46;95423.00;;;19.12;100.00
71457;BME280;59263;48.160;11.752;2022-08-19T11:09:14;95423.00;;;18.98;100.00
71457;BME280;59263;48.160;11.752;2022-08-19T11:11:40;95411.13;;;18.89;100.00
71457;BME280;59263;48.160;11.752;2022-08-19T11:14:08;95408.91;;;18.99;100.00
71457;BME280;59263;48.160;11.752;2022-08-19T11:16:35;95410.41;;;19.33;100.00
71457;BME280;59263;48.160;11.752;2022-08-19T11:19:02;95420.25;;;19.45;100.00
71457;BME280;59263;48.160;11.752;2022-08-19T11:21:32;95423.84;;;19.50;100.00
71457;BME280;59263;48.160;11.752;2022-08-19T11:24:02;95419.38;;;19.57;100.00
71457;BME280;59263;48.160;11.752;2022-08-19T11:26:29;95434.03;;;19.33;100.00
71457;BME280;59263;48.160;11.752;2022-08-19T11:28:56;95419.97;;;19.15;100.00
71457;BME280;59263;48.160;11.752;2022-08-19T11:31:25;95421.94;;;19.26;100.00
71457;BME280;59263;48.160;11.752;2022-08-19T11:33:51;95421.13;;;19.25;100.00
71457;BME280;59263;48.160;11.752;2022-08-19T11:36:19;95416.72;;;19.13;100.00
71457;BME280;59263;48.160;11.752;2022-08-19T11:38:46;95412.09;;;19.15;100.00
71457;BME280;59263;48.160;11.752;2022-08-19T11:41:14;95412.09;;;19.15;100.00
71457;BME280;59263;48.160;11.752;2022-08-19T11:43:40;95411.84;;;19.29;100.00
71457;BME280;59263;48.160;11.752;2022-08-19T11:46:08;95415.97;;;19.50;100.00
71457;BME280;59263;48.160;11.752;2022-08-19T11:48:35;95413.00;;;19.47;100.00
71457;BME280;59263;48.160;11.752;2022-08-19T11:51:04;95422.53;;;19.28;100.00
71457;BME280;59263;48.160;11.752;2022-08-19T11:53:31;95425.16;;;19.28;100.00
71457;BME280;59263;48.160;11.752;2022-08-19T11:55:57;95421.56;;;19.16;100.00
71457;BME280;59263;48.160;11.752;2022-08-19T11:58:23;95417.47;;;19.33;100.00
71457;BME280;59263;48.160;11.752;2022-08-19T12:00:49;95425.72;;;19.43;100.00
71457;BME280;59263;48.160;11.752;2022-08-19T12:03:15;95422.66;;;19.46;100.00
71457;BME280;59263;48.160;11.752;2022-08-19T12:05:41;95425.06;;;19.54;100.00
71457;BME280;59263;48.160;11.752;2022-08-19T12:08:07;95414.56;;;19.54;100.00
71457;BME280;59263;48.160;11.752;2022-08-19T12:10:33;95422.75;;;19.20;100.00
71457;BME280;59263;48.160;11.752;2022-08-19T12:12:59;95424.88;;;18.91;100.00
71457;BME280;59263;48.160;11.752;2022-08-19T12:15:26;95435.34;;;18.84;100.00
71457;BME280;59263;48.160;11.752;2022-08-19T12:17:53;95435.34;;;18.78;100.00
71457;BME280;59263;48.160;11.752;2022-08-19T12:20:22;95437.34;;;18.76;100.00
71457;BME280;59263;48.160;11.752;2022-08-19T12:22:47;95435.75;;;18.75;100.00
71457;BME280;59263;48.160;11.752;2022-08-19T12:25:13;95428.28;;;18.85;100.00
71457;BME280;59263;48.160;11.752;2022-08-19T12:27:39;95434.16;;;18.74;100.00
71457;BME280;59263;48.160;11.752;2022-08-19T12:30:07;95443.19;;;18.65;100.00
71457;BME280;59263;48.160;11.752;2022-08-19T12:32:33;95441.00;;;18.61;100.00
71457;BME280;59263;48.160;11.752;2022-08-19T12:34:59;95443.03;;;18.73;100.00
71457;BME280;59263;48.160;11.752;2022-08-19T12:37:24;95447.84;;;18.76;100.00
71457;BME280;59263;48.160;11.752;2022-08-19T12:39:50;95449.25;;;18.92;100.00
71457;BME280;59263;48.160;11.752;2022-08-19T12:42:15;95441.38;;;18.98;100.00
71457;BME280;59263;48.160;11.752;2022-08-19T12:44:42;95440.94;;;19.15;100.00
71457;BME280;59263;48.160;11.752;2022-08-19T12:47:09;95452.72;;;19.50;100.00
71457;BME280;59263;48.160;11.752;2022-08-19T12:49:35;95444.63;;;19.58;100.00
71457;BME280;59263;48.160;11.752;2022-08-19T12:52:03;95457.31;;;19.75;100.00
71457;BME280;59263;48.160;11.752;2022-08-19T12:54:29;95462.19;;;19.65;100.00
71457;BME280;59263;48.160;11.752;2022-08-19T12:56:56;95456.75;;;19.59;100.00
71457;BME280;59263;48.160;11.752;2022-08-19T12:59:21;95458.09;;;19.75;100.00